Time;durP1;ratioP1;P1;durP2;ratioP2;P2;SDS_P1;SDS_P2;PMS_P1;PMS_P2;Temp;Humidity;BMP_temperature;BMP_pressure;BME280_temperature;BME280_humidity;BME280_pressure;Samples;Min_cycle;Max_cycle;Signal;HPM_P1;HPM_P2
2021/10/18 00:00:15;;;;;;;13.50;7.50;;;;;;;7.83;66.73;100825.81;1715926;83;21189;-68
2021/10/18 00:02:51;;;;;;;12.33;7.35;;;;;;;7.80;66.81;100829.92;1716076;83;21269;-69
2021/10/18 00:05:27;;;;;;;16.27;8.08;;;;;;;7.74;66.94;100827.75;1715978;83;21293;-68
2021/10/18 00:08:03;;;;;;;13.45;8.03;;;;;;;7.69;67.08;100824.62;1693177;83;21198;-68
2021/10/18 00:10:36;;;;;;;10.32;5.78;;;;;;;7.65;67.19;100827.88;1715273;83;21293;-68
2021/10/18 00:13:13;;;;;;;16.90;8.78;;;;;;;7.61;67.29;100829.03;1726034;83;21515;-68
2021/10/18 00:15:50;;;;;;;14.23;7.62;;;;;;;7.56;67.43;100826.37;1715009;83;21185;-68
2021/10/18 00:18:28;;;;;;;13.80;8.23;;;;;;;7.50;67.43;100826.30;1716456;83;21151;-68
2021/10/18 00:21:04;;;;;;;14.95;8.25;;;;;;;7.45;67.60;100827.10;1714806;83;21265;-68
2021/10/18 00:23:39;;;;;;;15.10;8.18;;;;;;;7.39;67.71;100825.73;1694066;84;21348;-68
2021/10/18 00:26:15;;;;;;;17.12;8.40;;;;;;;7.32;67.82;100828.38;1692152;84;21186;-68
2021/10/18 00:28:49;;;;;;;14.98;7.78;;;;;;;7.23;68.04;100828.98;1704352;83;21197;-68
2021/10/18 00:31:28;;;;;;;15.98;7.87;;;;;;;7.17;68.19;100827.23;1729812;83;21280;-68
2021/10/18 00:34:01;;;;;;;12.37;7.67;;;;;;;7.11;68.36;100822.44;1730367;83;21303;-69
2021/10/18 00:36:34;;;;;;;13.32;8.28;;;;;;;7.05;68.53;100830.17;1729762;83;21818;-69
2021/10/18 00:39:07;;;;;;;;;;;;;;;7.00;68.71;100828.33;1731515;83;21193;-68
2021/10/18 00:41:45;;;;;;;15.90;8.08;;;;;;;6.95;68.86;100830.39;1704805;83;20312;-68
2021/10/18 00:44:18;;;;;;;16.75;8.88;;;;;;;6.86;69.01;100830.15;1730818;83;21193;-68
2021/10/18 00:46:58;;;;;;;20.02;8.93;;;;;;;6.78;69.20;100828.88;1729239;83;21261;-68
2021/10/18 00:49:30;;;;;;;16.12;8.08;;;;;;;6.70;69.28;100832.45;1731066;83;21248;-68
2021/10/18 00:52:08;;;;;;;17.32;7.60;;;;;;;6.60;69.45;100831.82;1730379;81;21788;-68
2021/10/18 00:54:42;;;;;;;15.15;7.80;;;;;;;6.51;69.69;100834.55;1730687;83;21253;-68
2021/10/18 00:57:16;;;;;;;17.23;8.05;;;;;;;6.45;70.00;100836.70;1729618;83;21291;-68
2021/10/18 00:59:48;;;;;;;;;;;;;;;6.41;70.24;100830.00;1733250;83;21149;-68
2021/10/18 01:02:21;;;;;;;15.43;7.87;;;;;;;6.35;70.39;100839.50;1729798;83;20242;-68
2021/10/18 01:05:00;;;;;;;16.52;8.03;;;;;;;6.28;70.68;100841.63;1731201;83;21260;-68
2021/10/18 01:07:39;;;;;;;16.77;8.33;;;;;;;6.27;70.86;100841.72;1730396;83;21288;-69
2021/10/18 01:10:12;;;;;;;14.78;8.73;;;;;;;6.23;70.94;100839.80;1729113;83;21349;-67
2021/10/18 01:12:46;;;;;;;15.72;8.58;;;;;;;6.20;71.11;100846.94;1729626;83;21787;-68
2021/10/18 01:15:23;;;;;;;18.45;7.58;;;;;;;6.12;71.25;100843.50;1730890;83;21372;-68
2021/10/18 01:17:56;;;;;;;23.18;9.20;;;;;;;6.05;71.46;100848.23;1729243;83;21339;-68
2021/10/18 01:20:36;;;;;;;19.60;9.20;;;;;;;6.01;71.73;100849.36;1730755;83;21218;-68
2021/10/18 01:23:14;;;;;;;21.75;9.53;;;;;;;6.00;71.91;100849.44;1729599;83;21311;-68
2021/10/18 01:25:50;;;;;;;21.25;9.73;;;;;;;5.96;72.08;100842.77;1714955;83;21162;-68
2021/10/18 01:28:25;;;;;;;25.20;9.25;;;;;;;5.92;72.24;100843.40;1716451;83;21356;-68
2021/10/18 01:31:03;;;;;;;22.48;9.15;;;;;;;5.90;72.37;100844.41;1715590;83;21225;-68
2021/10/18 01:33:37;;;;;;;18.05;8.90;;;;;;;5.89;72.39;100847.50;1716482;83;21271;-69
2021/10/18 01:36:10;;;;;;;18.17;8.13;;;;;;;5.88;72.46;100851.02;1716929;83;21274;-68
2021/10/18 01:38:46;;;;;;;19.25;8.43;;;;;;;5.86;72.42;100853.33;1716008;83;21155;-68
2021/10/18 01:41:20;;;;;;;19.48;8.85;;;;;;;5.83;72.52;100854.31;1716143;83;21170;-68
2021/10/18 01:43:53;;;;;;;;;;;;;;;5.79;72.67;100853.30;1717384;83;21256;-68
2021/10/18 01:46:29;;;;;;;29.00;9.60;;;;;;;5.75;72.70;100852.66;1716106;83;20240;-68
2021/10/18 01:49:06;;;;;;;26.85;9.65;;;;;;;5.70;72.93;100859.04;1716729;83;21151;-68
2021/10/18 01:51:41;;;;;;;25.75;9.50;;;;;;;5.68;73.09;100854.41;1727854;82;21280;-68
2021/10/18 01:54:21;;;;;;;18.90;9.03;;;;;;;5.68;73.23;100860.90;1716624;83;21163;-68
2021/10/18 01:56:55;;;;;;;18.10;8.90;;;;;;;5.73;73.32;100855.78;1715081;83;21217;-68
2021/10/18 01:59:30;;;;;;;15.78;8.10;;;;;;;5.81;73.44;100854.88;1716424;83;21798;-68
2021/10/18 02:02:04;;;;;;;16.55;8.68;;;;;;;5.92;73.46;100856.39;1715708;83;21300;-68
2021/10/18 02:04:44;;;;;;;12.90;8.33;;;;;;;6.02;73.46;100856.22;1725699;83;21272;-68
2021/10/18 02:07:22;;;;;;;16.50;8.43;;;;;;;6.11;73.35;100851.75;1716329;83;21292;-68
2021/10/18 02:09:59;;;;;;;17.73;8.08;;;;;;;6.19;73.12;100847.39;1716672;83;21219;-68
2021/10/18 02:12:32;;;;;;;15.08;8.35;;;;;;;6.24;72.86;100849.25;1727271;83;21225;-69
2021/10/18 02:15:09;;;;;;;16.35;7.53;;;;;;;6.26;72.70;100850.47;1716291;83;21159;-68
2021/10/18 02:17:45;;;;;;;14.00;7.97;;;;;;;6.21;72.51;100848.13;1716032;83;21202;-68
2021/10/18 02:20:21;;;;;;;16.82;8.33;;;;;;;6.17;72.47;100845.81;1716908;83;21146;-68
2021/10/18 02:22:55;;;;;;;11.22;6.83;;;;;;;6.09;72.45;100847.11;1714911;83;21210;-68
2021/10/18 02:25:33;;;;;;;14.53;7.62;;;;;;;6.02;72.44;100852.31;1714945;83;21293;-68
2021/10/18 02:28:12;;;;;;;15.70;8.00;;;;;;;5.95;72.49;100852.31;1730353;83;21181;-68
2021/10/18 02:30:50;;;;;;;16.82;7.58;;;;;;;5.90;72.65;100856.11;1714783;83;21174;-68
2021/10/18 02:33:27;;;;;;;13.62;7.50;;;;;;;5.83;72.75;100858.22;1714424;83;21381;-68
2021/10/18 02:36:02;;;;;;;12.98;7.70;;;;;;;5.76;72.73;100857.36;1716011;83;21815;-68
2021/10/18 02:38:35;;;;;;;14.58;7.97;;;;;;;5.70;72.83;100863.78;1715383;83;21312;-68
2021/10/18 02:41:12;;;;;;;18.10;8.05;;;;;;;5.64;72.82;100862.83;1716260;83;21166;-68
2021/10/18 02:43:52;;;;;;;15.25;7.42;;;;;;;5.58;72.94;100864.50;1729778;83;21186;-68
2021/10/18 02:46:27;;;;;;;15.78;7.72;;;;;;;5.54;73.04;100862.17;1716253;83;21214;-68
2021/10/18 02:49:02;;;;;;;15.88;8.13;;;;;;;5.52;73.12;100868.73;1715562;83;21194;-68
2021/10/18 02:51:43;;;;;;;15.98;8.55;;;;;;;5.47;72.99;100865.56;1729685;81;21256;-67
2021/10/18 02:54:22;;;;;;;18.32;9.18;;;;;;;5.38;72.91;100863.05;1714901;83;21257;-67
2021/10/18 02:57:04;;;;;;;20.80;8.63;;;;;;;5.32;72.97;100867.31;1716105;83;21320;-67
2021/10/18 02:59:43;;;;;;;18.17;8.73;;;;;;;5.26;73.13;100868.09;1706574;83;21696;-67
2021/10/18 03:02:17;;;;;;;16.55;8.35;;;;;;;5.20;73.39;100868.01;1715834;83;21317;-67
2021/10/18 03:04:52;;;;;;;20.23;9.03;;;;;;;5.16;73.58;100868.27;1729428;83;21542;-67
2021/10/18 03:07:29;;;;;;;18.90;9.55;;;;;;;5.14;73.74;100863.60;1715901;83;21804;-67
2021/10/18 03:10:08;;;;;;;17.57;9.40;;;;;;;5.11;73.87;100861.20;1714453;83;21832;-67
2021/10/18 03:12:42;;;;;;;20.50;9.18;;;;;;;5.09;74.06;100866.46;1713699;83;21724;-67
2021/10/18 03:15:17;;;;;;;20.90;9.13;;;;;;;5.07;74.25;100859.69;1730974;83;21161;-67
2021/10/18 03:17:51;;;;;;;;;;;;;;;5.05;74.37;100858.94;1718356;83;21265;-68
2021/10/18 03:20:23;;;;;;;20.02;9.90;;;;;;;5.03;74.42;100856.89;1716009;83;20231;-67
2021/10/18 03:22:57;;;;;;;18.25;9.40;;;;;;;4.98;74.48;100857.61;1714572;83;21174;-68
2021/10/18 03:25:39;;;;;;;21.35;10.45;;;;;;;4.95;74.58;100861.21;1715496;83;21713;-69
2021/10/18 03:28:12;;;;;;;21.65;11.22;;;;;;;4.92;74.66;100861.38;1715916;83;21284;-67
2021/10/18 03:30:48;;;;;;;21.37;10.93;;;;;;;4.92;74.74;100860.56;1715768;83;21265;-67
2021/10/18 03:33:31;;;;;;;20.08;12.35;;;;;;;4.91;74.85;100860.17;1715427;83;21175;-67
2021/10/18 03:36:09;;;;;;;24.60;13.10;;;;;;;4.89;74.89;100862.02;1714311;83;21190;-67
2021/10/18 03:38:44;;;;;;;;;;;;;;;4.87;74.90;100862.12;1718447;83;21296;-67
2021/10/18 03:41:18;;;;;;;21.90;12.33;;;;;;;4.86;75.02;100864.78;1714639;83;20167;-67
2021/10/18 03:43:51;;;;;;;20.45;10.32;;;;;;;4.81;75.09;100865.04;1715449;83;21359;-67
2021/10/18 03:46:28;;;;;;;18.15;10.00;;;;;;;4.78;75.05;100861.80;1714417;83;21169;-67
2021/10/18 03:49:06;;;;;;;19.42;9.68;;;;;;;4.74;75.00;100856.77;1714442;83;21162;-67
2021/10/18 03:51:41;;;;;;;20.40;9.80;;;;;;;4.71;74.98;100857.37;1714416;82;21190;-68
2021/10/18 03:54:14;;;;;;;15.60;8.75;;;;;;;4.67;74.91;100863.67;1715222;83;21340;-67
2021/10/18 03:56:50;;;;;;;25.27;8.60;;;;;;;4.65;74.91;100861.17;1715812;83;21867;-67
2021/10/18 03:59:27;;;;;;;16.12;8.65;;;;;;;4.63;74.95;100862.98;1715891;83;21242;-68
2021/10/18 04:02:04;;;;;;;18.27;9.60;;;;;;;4.62;74.97;100865.22;1715921;83;21784;-64
2021/10/18 04:04:43;;;;;;;21.50;9.60;;;;;;;4.68;75.03;100866.66;1729547;83;21812;-65
2021/10/18 04:07:19;;;;;;;29.95;11.90;;;;;;;4.82;75.00;100868.02;1716133;83;21856;-66
2021/10/18 04:09:54;;;;;;;30.25;13.35;;;;;;;5.03;74.93;100859.03;1713119;83;21477;-66
2021/10/18 04:12:27;;;;;;;49.98;18.20;;;;;;;5.28;74.55;100864.95;1713281;83;21178;-65
2021/10/18 04:15:02;;;;;;;26.23;12.70;;;;;;;5.54;74.14;100870.77;1725190;83;21228;-67
2021/10/18 04:17:36;;;;;;;30.40;12.80;;;;;;;5.83;73.69;100876.40;1710569;83;21254;-67
2021/10/18 04:20:13;;;;;;;26.62;11.60;;;;;;;6.21;73.14;100875.42;1729902;83;21280;-67
2021/10/18 04:22:50;;;;;;;19.17;10.20;;;;;;;6.66;72.33;100879.09;1708656;83;21221;-69
2021/10/18 04:25:23;;;;;;;18.10;9.65;;;;;;;7.18;71.37;100885.74;1725182;83;21224;-68
2021/10/18 04:32:09;;;;;;;19.40;9.80;;;;;;;8.32;68.74;100886.71;1726541;83;21164;-68
2021/10/18 04:34:45;;;;;;;22.93;9.05;;;;;;;9.23;66.20;100882.30;1717048;83;21323;-68
2021/10/18 04:37:17;;;;;;;40.03;12.98;;;;;;;9.88;64.50;100888.33;1743256;82;21298;-68
2021/10/18 04:39:51;;;;;;;49.60;18.05;;;;;;;10.54;62.48;100891.00;1743270;82;21314;-68
2021/10/18 04:42:27;;;;;;;44.27;18.27;;;;;;;11.22;60.32;100884.20;1741101;81;21945;-68
2021/10/18 04:45:01;;;;;;;48.08;19.50;;;;;;;11.90;58.05;100892.09;1743970;81;21590;-69
2021/10/18 04:47:45;;;;;;;43.00;17.02;;;;;;;12.56;55.89;100892.88;1754679;81;21177;-67
2021/10/18 04:50:21;;;;;;;42.38;15.80;;;;;;;13.20;53.87;100887.25;1749538;81;21661;-65
2021/10/18 04:52:56;;;;;;;33.83;14.83;;;;;;;13.85;51.87;100889.16;1749763;81;21589;-68
2021/10/18 04:59:38;;;;;;;24.60;9.90;;;;;;;14.97;48.47;100884.55;1756648;81;21452;-67
2021/10/18 05:14:41;;;;;;;23.02;8.60;;;;;;;17.96;40.90;100898.20;1755550;81;21149;-65
2021/10/18 05:17:16;;;;;;;12.00;7.25;;;;;;;18.78;39.00;100907.59;1755991;81;21999;-62
2021/10/18 05:19:52;;;;;;;13.35;6.67;;;;;;;19.26;37.89;100902.01;1756100;81;21169;-62
2021/10/18 05:22:25;;;;;;;11.95;7.47;;;;;;;19.77;36.80;100908.95;1756183;81;21990;-66
2021/10/18 05:25:00;;;;;;;11.22;8.55;;;;;;;20.23;35.83;100912.36;1755507;81;21363;-64
2021/10/18 05:27:37;;;;;;;10.58;7.70;;;;;;;20.64;34.96;100915.69;1749295;81;22033;-65
2021/10/18 05:30:16;;;;;;;15.85;9.10;;;;;;;21.03;34.23;100919.84;1741630;82;21181;-64
2021/10/18 05:32:50;;;;;;;16.37;10.55;;;;;;;21.43;33.37;100916.61;1741596;82;22104;-66
2021/10/18 05:35:23;;;;;;;19.65;12.53;;;;;;;21.87;32.54;100914.59;1740855;82;22184;-64
2021/10/18 05:37:57;;;;;;;23.55;12.33;;;;;;;22.22;31.82;100914.61;1741336;82;21236;-63
2021/10/18 05:40:29;;;;;;;;;;;;;;;22.52;31.35;100911.50;1744121;82;21622;-66
2021/10/18 05:43:04;;;;;;;18.30;10.88;;;;;;;22.86;30.76;100919.17;1741472;82;20221;-68
2021/10/18 05:45:37;;;;;;;14.70;9.90;;;;;;;23.24;30.20;100915.80;1740661;82;21180;-70
2021/10/18 05:48:14;;;;;;;10.78;7.33;;;;;;;23.67;29.47;100918.98;1741359;82;21359;-69
2021/10/18 05:50:49;;;;;;;10.35;6.72;;;;;;;24.13;28.83;100922.17;1741071;81;21358;-69
2021/10/18 05:53:23;;;;;;;11.48;7.05;;;;;;;24.59;28.32;100926.41;1741284;82;22010;-67
2021/10/18 05:56:00;;;;;;;10.40;6.53;;;;;;;25.04;27.50;100923.26;1740166;82;21991;-64
2021/10/18 05:58:33;;;;;;;9.23;5.85;;;;;;;25.42;26.83;100913.84;1741479;82;21307;-65
2021/10/18 06:01:08;;;;;;;7.67;5.60;;;;;;;25.68;26.38;100920.39;1718591;82;21311;-68
2021/10/18 06:03:43;;;;;;;11.28;7.10;;;;;;;26.00;26.12;100922.50;1741422;82;21306;-66
2021/10/18 06:10:29;;;;;;;8.48;6.08;;;;;;;26.76;25.10;100922.97;1741511;82;21252;-67
2021/10/18 06:13:04;;;;;;;10.95;6.00;;;;;;;27.35;24.25;100928.36;1740139;82;22161;-70
2021/10/18 06:15:40;;;;;;;8.85;6.20;;;;;;;27.62;23.67;100923.95;1740846;82;21335;-67
2021/10/18 06:18:16;;;;;;;8.95;4.90;;;;;;;27.88;23.42;100927.55;1740100;82;21648;-64
2021/10/18 06:20:54;;;;;;;8.23;4.75;;;;;;;28.17;23.04;100925.31;1739452;82;21487;-67
2021/10/18 06:23:30;;;;;;;9.40;4.80;;;;;;;28.46;22.57;100924.87;1740003;82;21282;-68
2021/10/18 06:26:06;;;;;;;7.42;5.28;;;;;;;28.67;22.42;100922.40;1740582;82;21298;-69
2021/10/18 06:28:47;;;;;;;9.50;4.95;;;;;;;28.92;22.12;100924.80;1747448;81;21327;-72
2021/10/18 06:31:23;;;;;;;7.45;5.03;;;;;;;29.17;21.84;100923.91;1756360;81;22001;-70
2021/10/18 06:33:56;;;;;;;6.40;4.60;;;;;;;29.49;21.48;100923.42;1756083;81;21351;-71
2021/10/18 06:36:30;;;;;;;7.03;4.47;;;;;;;29.71;21.08;100916.25;1755281;81;21321;-69
2021/10/18 06:39:06;;;;;;;7.92;4.28;;;;;;;29.96;20.79;100915.31;1756197;81;21177;-72
2021/10/18 06:41:40;;;;;;;7.05;4.65;;;;;;;30.25;20.48;100916.83;1755934;81;21193;-71
2021/10/18 06:44:14;;;;;;;7.10;4.08;;;;;;;30.51;20.22;100919.36;1756202;81;21513;-70
2021/10/18 06:46:48;;;;;;;7.22;4.30;;;;;;;30.68;19.91;100917.94;1755099;81;21289;-73
2021/10/18 06:49:24;;;;;;;5.03;4.05;;;;;;;30.86;19.89;100921.13;1756285;81;21539;-72
2021/10/18 06:51:58;;;;;;;5.45;4.15;;;;;;;31.12;19.42;100917.66;1756267;81;21339;-69
2021/10/18 06:54:40;;;;;;;7.30;4.60;;;;;;;31.30;19.15;100927.31;1753893;81;21188;-72
2021/10/18 07:01:22;;;;;;;5.83;4.33;;;;;;;31.76;18.63;100925.86;1755967;81;21118;-68
2021/10/18 07:03:59;;;;;;;7.25;4.60;;;;;;;32.03;18.46;100925.81;1754656;81;21272;-62
2021/10/18 07:06:34;;;;;;;6.87;4.60;;;;;;;32.29;18.22;100920.26;1755260;81;21311;-70
2021/10/18 07:09:10;;;;;;;8.30;4.05;;;;;;;32.57;17.90;100923.16;1754581;81;21377;-70
2021/10/18 07:11:44;;;;;;;5.58;3.58;;;;;;;32.78;17.57;100926.75;1756224;81;21332;-74
2021/10/18 07:14:19;;;;;;;8.65;4.22;;;;;;;32.89;17.31;100929.22;1755452;81;21481;-68
2021/10/18 07:16:53;;;;;;;3.98;3.42;;;;;;;32.96;17.25;100920.28;1754606;81;21361;-67
2021/10/18 07:19:29;;;;;;;5.20;3.52;;;;;;;32.97;17.10;100918.39;1754578;81;21213;-70
2021/10/18 07:22:04;;;;;;;4.67;3.55;;;;;;;32.95;17.07;100920.56;1754134;80;21173;-70
2021/10/18 07:24:43;;;;;;;6.22;3.52;;;;;;;32.99;16.84;100913.52;1755906;81;21339;-68
2021/10/18 07:27:16;;;;;;;7.28;3.40;;;;;;;33.03;16.81;100916.02;1755085;81;21564;-67
2021/10/18 07:29:51;;;;;;;5.85;3.30;;;;;;;33.13;16.59;100908.70;1755460;81;21196;-70
2021/10/18 07:32:28;;;;;;;4.95;2.85;;;;;;;33.08;16.48;100914.11;1754992;81;21319;-70
2021/10/18 07:35:04;;;;;;;4.95;3.17;;;;;;;33.17;16.27;100910.34;1753999;81;21323;-68
2021/10/18 07:37:38;;;;;;;5.50;3.02;;;;;;;33.33;15.95;100913.88;1754324;81;21229;-66
2021/10/18 07:40:14;;;;;;;5.62;2.83;;;;;;;33.40;15.76;100913.06;1755411;81;21221;-71
2021/10/18 07:42:47;;;;;;;7.10;2.75;;;;;;;33.44;15.65;100914.17;1755434;81;21225;-67
2021/10/18 07:45:22;;;;;;;4.72;2.40;;;;;;;33.42;15.55;100910.35;1755892;81;22134;-65
2021/10/18 07:52:11;;;;;;;5.67;2.62;;;;;;;33.52;14.93;100910.91;1754567;81;21983;-68
2021/10/18 07:54:43;;;;;;;5.70;3.58;;;;;;;33.60;14.75;100903.08;1754868;81;22114;-68
2021/10/18 07:57:23;;;;;;;5.25;2.80;;;;;;;33.54;14.81;100898.72;1755520;81;21224;-67
2021/10/18 07:59:56;;;;;;;5.72;2.80;;;;;;;33.57;14.80;100900.08;1754809;81;21377;-70
2021/10/18 08:02:31;;;;;;;4.65;2.52;;;;;;;33.36;15.10;100897.06;1761156;81;21836;-69
2021/10/18 08:05:15;;;;;;;5.55;2.80;;;;;;;33.27;15.12;100894.62;1754862;81;22118;-67
2021/10/18 08:07:50;;;;;;;7.03;2.65;;;;;;;32.73;15.48;100896.90;1754637;81;21186;-70
2021/10/18 08:10:26;;;;;;;4.17;2.42;;;;;;;32.04;15.90;100890.86;1756492;81;21424;-68
2021/10/18 08:13:01;;;;;;;2.98;2.20;;;;;;;31.45;16.33;100898.26;1731303;81;21303;-69
2021/10/18 08:15:36;;;;;;;4.62;2.42;;;;;;;31.18;16.62;100898.25;1756517;81;21166;-67
2021/10/18 08:18:11;;;;;;;4.90;2.45;;;;;;;30.64;16.73;100896.02;1755216;81;22199;-65
2021/10/18 08:20:46;;;;;;;3.33;2.10;;;;;;;29.98;17.28;100886.18;1756263;81;21189;-66
2021/10/18 08:23:21;;;;;;;5.28;2.33;;;;;;;29.12;17.74;100891.98;1755984;81;21296;-64
2021/10/18 08:26:02;;;;;;;3.72;2.20;;;;;;;28.11;18.58;100892.59;1756360;81;21483;-62
2021/10/18 08:32:51;;;;;;;12.33;2.87;;;;;;;28.23;18.96;100888.02;1742284;81;22011;-63
2021/10/18 08:35:32;;;;;;;11.30;3.60;;;;;;;27.85;19.39;100877.70;1706255;82;21488;-66
2021/10/18 08:38:46;;;;;;;6.80;2.55;;;;;;;27.06;19.97;100881.36;1701657;82;21342;-70
2021/10/18 08:41:16;;;;;;;4.75;2.60;;;;;;;26.07;20.57;100883.83;1738568;82;21302;-65
2021/10/18 08:46:31;;;;;;;4.75;2.50;;;;;;;24.83;21.98;100890.60;1740134;82;20403;-66
2021/10/18 08:49:07;;;;;;;4.72;3.20;;;;;;;24.37;22.70;100887.55;1739367;82;21251;-64
2021/10/18 08:51:41;;;;;;;5.37;2.60;;;;;;;24.15;23.31;100885.33;1740375;81;21334;-63
2021/10/18 08:54:18;;;;;;;4.30;2.47;;;;;;;23.96;23.74;100890.48;1738821;82;21993;-66
2021/10/18 08:56:55;;;;;;;4.80;2.42;;;;;;;23.83;23.85;100878.98;1738010;82;21323;-68
2021/10/18 08:59:29;;;;;;;6.28;3.00;;;;;;;23.56;24.02;100871.48;1739924;82;21389;-69
2021/10/18 09:02:04;;;;;;;6.08;2.40;;;;;;;23.10;24.36;100880.75;1740074;82;21303;-68
2021/10/18 09:04:41;;;;;;;3.67;2.22;;;;;;;22.59;24.86;100881.66;1739697;82;21220;-63
2021/10/18 09:07:20;;;;;;;4.78;2.27;;;;;;;22.04;25.41;100885.26;1740260;82;21291;-69
2021/10/18 09:09:59;;;;;;;4.08;2.37;;;;;;;21.51;26.11;100882.36;1739521;82;21326;-67
2021/10/18 09:16:46;;;;;;;3.85;2.20;;;;;;;20.69;27.49;100884.03;1739116;82;21458;-66
2021/10/18 09:19:26;;;;;;;6.33;3.35;;;;;;;20.26;28.09;100882.23;1739249;82;21382;-67
2021/10/18 09:22:04;;;;;;;35.92;16.45;;;;;;;19.98;28.52;100880.68;1738923;82;21323;-68
2021/10/18 09:28:48;;;;;;;6.08;2.67;;;;;;;19.47;29.44;100874.83;1714212;83;21952;-70
2021/10/18 09:31:25;;;;;;;11.48;4.80;;;;;;;19.17;30.06;100876.53;1664171;85;21247;-65
2021/10/18 09:34:13;;;;;;;14.18;6.67;;;;;;;19.09;30.42;100873.09;1711389;82;22059;-64
2021/10/18 09:36:50;;;;;;;9.98;3.67;;;;;;;18.99;30.75;100874.64;1711281;83;21490;-65
2021/10/18 09:39:28;;;;;;;4.00;2.27;;;;;;;18.93;30.71;100871.87;1742621;82;21305;-68
2021/10/18 09:42:15;;;;;;;7.58;2.40;;;;;;;18.87;30.35;100865.95;1774275;80;22118;-68
2021/10/18 10:56:37;;;;;;;27.73;9.45;;;;;;;16.42;34.24;100828.02;1723804;83;22088;-61
2021/10/18 10:59:24;;;;;;;9.60;3.98;;;;;;;16.37;34.32;100836.92;1723451;83;21336;-60
2021/10/18 11:02:09;;;;;;;5.47;2.75;;;;;;;16.25;34.23;100832.41;1723579;83;21498;-59
2021/10/18 11:04:44;;;;;;;12.82;2.95;;;;;;;16.14;34.47;100823.45;1722056;83;21370;-60
2021/10/18 11:07:42;;;;;;;11.93;3.87;;;;;;;16.01;34.75;100829.65;1723428;83;21332;-60
2021/10/18 11:10:16;;;;;;;6.35;2.85;;;;;;;15.87;34.75;100822.31;1722099;82;22091;-62
2021/10/18 11:12:52;;;;;;;9.05;3.45;;;;;;;15.70;34.73;100815.27;1695361;83;21500;-61
2021/10/18 11:15:25;;;;;;;7.20;2.87;;;;;;;15.59;35.10;100824.77;1723709;83;21198;-58
2021/10/18 11:17:58;;;;;;;6.00;2.60;;;;;;;15.50;35.31;100820.74;1723625;83;21383;-65
2021/10/18 11:20:35;;;;;;;6.22;2.25;;;;;;;15.43;35.43;100817.52;1722764;83;21320;-62
2021/10/18 11:23:09;;;;;;;5.80;2.65;;;;;;;15.36;35.58;100815.99;1723514;83;21677;-64
2021/10/18 11:29:58;;;;;;;9.50;2.80;;;;;;;15.24;35.61;100809.30;1723241;83;21182;-60
2021/10/18 11:32:35;;;;;;;6.33;2.87;;;;;;;15.14;36.03;100807.74;1723364;83;21315;-62
2021/10/18 11:35:26;;;;;;;11.57;3.40;;;;;;;15.11;36.18;100799.64;1724862;83;21331;-60
2021/10/18 11:38:11;;;;;;;9.93;2.42;;;;;;;15.06;35.90;100797.95;1723183;83;21224;-60
2021/10/18 11:40:48;;;;;;;7.17;2.45;;;;;;;14.88;35.95;100797.10;1722596;83;21217;-61
2021/10/18 11:43:24;;;;;;;6.50;2.30;;;;;;;14.79;36.03;100791.42;1719581;83;21693;-59
2021/10/18 11:46:00;;;;;;;8.83;4.47;;;;;;;14.71;36.25;100788.72;1726689;83;21281;-61
2021/10/18 11:48:37;;;;;;;10.15;4.22;;;;;;;14.64;36.46;100797.69;1726116;83;21339;-64
2021/10/18 11:51:10;;;;;;;11.28;3.77;;;;;;;14.57;36.56;100791.84;1720645;82;21406;-64
2021/10/18 11:53:45;;;;;;;11.57;3.47;;;;;;;14.46;36.90;100794.69;1719732;83;21225;-62
2021/10/18 11:56:22;;;;;;;12.30;4.33;;;;;;;14.37;37.05;100797.73;1721183;83;21316;-60
2021/10/18 11:58:58;;;;;;;8.85;3.20;;;;;;;14.31;37.37;100790.41;1700662;83;21221;-62
2021/10/18 12:01:31;;;;;;;10.75;3.47;;;;;;;14.27;37.46;100787.70;1700248;83;21336;-64
2021/10/18 12:08:18;;;;;;;5.60;2.83;;;;;;;14.11;37.74;100804.11;1721024;83;21185;-61
2021/10/18 12:10:52;;;;;;;8.08;3.00;;;;;;;13.94;37.94;100802.27;1720351;83;22116;-65
2021/10/18 12:13:37;;;;;;;8.15;3.20;;;;;;;13.89;38.38;100801.88;1721039;83;21668;-64
2021/10/18 12:16:22;;;;;;;7.28;3.25;;;;;;;13.89;38.38;100801.88;1719552;83;21173;-65
2021/10/18 12:19:01;;;;;;;7.55;3.27;;;;;;;13.94;38.55;100800.12;1720988;83;21356;-63
2021/10/18 12:21:47;;;;;;;10.28;3.72;;;;;;;14.00;38.38;100794.27;1719970;83;22028;-66
2021/10/18 12:24:17;;;;;;;8.85;4.42;;;;;;;14.09;38.38;100799.48;1720243;82;21300;-64
2021/10/18 12:26:55;;;;;;;14.45;4.60;;;;;;;14.18;38.33;100789.42;1721026;83;21328;-66
2021/10/18 12:29:29;;;;;;;7.12;3.35;;;;;;;14.26;37.97;100793.13;1720859;83;21315;-64
2021/10/18 12:32:09;;;;;;;11.70;3.70;;;;;;;14.27;37.92;100792.13;1699805;83;21312;-61
2021/10/18 12:34:43;;;;;;;7.70;3.40;;;;;;;14.23;37.81;100793.41;1720170;83;21315;-66
2021/10/18 12:37:19;;;;;;;11.22;3.30;;;;;;;14.17;37.79;100797.45;1721416;83;21463;-60
2021/10/18 12:40:05;;;;;;;5.97;3.30;;;;;;;14.16;37.79;100793.17;1720281;83;21613;-62
2021/10/18 12:42:48;;;;;;;17.40;5.50;;;;;;;14.13;37.87;100802.20;1721222;83;21363;-65
2021/10/18 12:45:22;;;;;;;12.47;6.03;;;;;;;14.10;37.85;100798.53;1719790;83;21375;-64
2021/10/18 12:47:56;;;;;;;12.73;5.35;;;;;;;14.07;37.86;100801.44;1717408;83;21385;-65
2021/10/18 12:50:38;;;;;;;8.68;3.95;;;;;;;14.02;37.92;100804.16;1717280;82;21217;-67
2021/10/18 12:53:13;;;;;;;8.63;3.40;;;;;;;13.96;38.00;100802.11;1720051;82;21336;-63
2021/10/18 12:55:47;;;;;;;29.82;14.78;;;;;;;13.86;38.12;100800.83;1717113;83;22111;-62
2021/10/18 12:58:22;;;;;;;11.40;5.22;;;;;;;13.71;38.39;100799.63;1719017;83;21201;-62
2021/10/18 13:00:58;;;;;;;14.33;6.85;;;;;;;13.56;38.68;100799.75;1717499;83;21209;-62
2021/10/18 13:03:36;;;;;;;13.40;6.15;;;;;;;13.42;39.03;100801.52;1719282;82;21174;-59
2021/10/18 13:06:17;;;;;;;11.28;5.90;;;;;;;13.30;39.36;100803.44;1699038;83;21370;-61
2021/10/18 13:08:51;;;;;;;27.52;13.68;;;;;;;13.19;39.71;100807.54;1719003;83;21201;-66
2021/10/18 13:11:26;;;;;;;18.80;7.92;;;;;;;13.11;39.91;100810.53;1718054;82;21221;-62
2021/10/18 13:14:02;;;;;;;24.05;11.65;;;;;;;13.06;40.14;100814.89;1717494;83;21598;-63
2021/10/18 13:20:49;;;;;;;12.60;4.60;;;;;;;13.04;40.49;100815.97;1720363;82;21310;-63
2021/10/18 13:23:28;;;;;;;;;;;;;;;13.07;40.67;100806.02;1721931;82;21201;-64
2021/10/18 13:25:58;;;;;;;10.65;4.97;;;;;;;13.07;40.48;100815.70;1718293;82;20748;-63
2021/10/18 13:28:31;;;;;;;680.92;309.40;;;;;;;13.03;40.50;100816.45;1719423;82;21177;-60
2021/10/18 13:35:19;;;;;;;65.83;32.08;;;;;;;12.95;40.84;100807.09;1718580;82;21225;-63
2021/10/18 13:37:53;;;;;;;36.80;15.50;;;;;;;12.88;40.55;100807.30;1719485;83;21245;-61
2021/10/18 13:40:28;;;;;;;22.37;11.08;;;;;;;12.81;40.50;100809.66;1718518;83;21311;-59
2021/10/18 13:43:01;;;;;;;25.35;10.48;;;;;;;12.77;40.46;100812.69;1717762;83;22212;-63
2021/10/18 13:45:35;;;;;;;16.73;7.53;;;;;;;12.70;40.62;100820.77;1718736;83;21535;-66
2021/10/18 13:48:12;;;;;;;15.58;5.72;;;;;;;12.64;40.57;100821.30;1717804;83;22064;-61
2021/10/18 13:50:45;;;;;;;13.40;5.95;;;;;;;12.55;40.60;100816.39;1718704;82;21237;-61
2021/10/18 13:53:20;;;;;;;13.55;4.95;;;;;;;12.49;40.73;100819.53;1698124;83;21304;-60
2021/10/18 14:00:05;;;;;;;13.20;5.60;;;;;;;12.36;40.88;100814.19;1719324;83;22012;-64
2021/10/18 14:06:50;;;;;;;15.93;4.95;;;;;;;12.13;41.19;100820.13;1718332;82;21196;-64
2021/10/18 14:09:26;;;;;;;10.90;4.90;;;;;;;11.93;41.27;100824.45;1718853;83;21189;-64
2021/10/18 14:11:59;;;;;;;16.17;5.12;;;;;;;11.81;41.63;100831.22;1726556;82;21291;-62
2021/10/18 14:14:36;;;;;;;14.85;5.55;;;;;;;11.69;41.83;100836.19;1731835;82;21304;-62
2021/10/18 14:17:11;;;;;;;35.95;12.53;;;;;;;11.55;42.10;100840.41;1731566;82;22100;-62
2021/10/18 14:19:50;;;;;;;93.30;38.60;;;;;;;11.41;42.29;100841.57;1729765;82;22253;-64
2021/10/18 14:22:25;;;;;;;69.03;30.20;;;;;;;11.28;42.75;100839.12;1731138;82;21322;-64
2021/10/18 14:25:01;;;;;;;66.90;25.90;;;;;;;11.16;42.95;100842.75;1731971;82;21299;-61
2021/10/18 14:27:36;;;;;;;51.80;20.67;;;;;;;10.90;43.75;100839.27;1732009;82;21382;-62
2021/10/18 14:30:14;;;;;;;36.20;15.50;;;;;;;10.90;43.75;100839.27;1731600;82;21696;-63